sensor_id;sensor_type;location;lat;lon;timestamp;P1;durP1;ratioP1;P2;durP2;ratioP2
24961;SDS011;12992;50.884;13.668;2023-02-04T00:01:30;4.82;;;1.30;;
24961;SDS011;12992;50.884;13.668;2023-02-04T00:03:55;9.68;;;1.48;;
24961;SDS011;12992;50.884;13.668;2023-02-04T00:06:20;2.80;;;1.13;;
24961;SDS011;12992;50.884;13.668;2023-02-04T00:08:46;4.20;;;1.40;;
24961;SDS011;12992;50.884;13.668;2023-02-04T00:11:11;6.63;;;1.70;;
24961;SDS011;12992;50.884;13.668;2023-02-04T00:13:36;4.25;;;1.30;;
24961;SDS011;12992;50.884;13.668;2023-02-04T00:16:02;4.93;;;1.30;;
24961;SDS011;12992;50.884;13.668;2023-02-04T00:18:27;3.65;;;1.17;;
24961;SDS011;12992;50.884;13.668;2023-02-04T00:20:53;2.95;;;0.77;;
24961;SDS011;12992;50.884;13.668;2023-02-04T00:23:18;3.63;;;1.00;;
24961;SDS011;12992;50.884;13.668;2023-02-04T00:25:44;1.63;;;1.02;;
24961;SDS011;12992;50.884;13.668;2023-02-04T00:28:09;3.08;;;1.10;;
24961;SDS011;12992;50.884;13.668;2023-02-04T00:30:34;1.30;;;1.05;;
24961;SDS011;12992;50.884;13.668;2023-02-04T00:33:00;1.55;;;1.10;;
24961;SDS011;12992;50.884;13.668;2023-02-04T00:35:26;2.72;;;1.20;;
24961;SDS011;12992;50.884;13.668;2023-02-04T00:37:51;1.42;;;1.13;;
24961;SDS011;12992;50.884;13.668;2023-02-04T00:40:17;1.40;;;1.30;;
24961;SDS011;12992;50.884;13.668;2023-02-04T00:42:42;1.65;;;1.55;;
24961;SDS011;12992;50.884;13.668;2023-02-04T00:45:08;3.22;;;1.65;;
24961;SDS011;12992;50.884;13.668;2023-02-04T00:47:34;5.38;;;1.80;;
24961;SDS011;12992;50.884;13.668;2023-02-04T00:50:00;3.85;;;1.60;;
24961;SDS011;12992;50.884;13.668;2023-02-04T00:52:25;1.80;;;1.50;;
24961;SDS011;12992;50.884;13.668;2023-02-04T00:54:50;1.60;;;1.50;;
24961;SDS011;12992;50.884;13.668;2023-02-04T00:57:16;1.65;;;1.55;;
24961;SDS011;12992;50.884;13.668;2023-02-04T00:59:42;2.63;;;1.60;;
24961;SDS011;12992;50.884;13.668;2023-02-04T01:02:07;1.65;;;1.55;;
24961;SDS011;12992;50.884;13.668;2023-02-04T01:04:33;2.38;;;1.50;;
24961;SDS011;12992;50.884;13.668;2023-02-04T01:06:58;1.95;;;1.60;;
24961;SDS011;12992;50.884;13.668;2023-02-04T01:09:25;1.92;;;1.83;;
24961;SDS011;12992;50.884;13.668;2023-02-04T01:11:50;3.50;;;1.70;;
24961;SDS011;12992;50.884;13.668;2023-02-04T01:14:15;1.67;;;1.58;;
24961;SDS011;12992;50.884;13.668;2023-02-04T01:16:41;2.45;;;1.75;;
24961;SDS011;12992;50.884;13.668;2023-02-04T01:19:06;2.55;;;1.50;;
24961;SDS011;12992;50.884;13.668;2023-02-04T01:21:32;2.13;;;1.63;;
24961;SDS011;12992;50.884;13.668;2023-02-04T01:23:57;3.20;;;1.60;;
24961;SDS011;12992;50.884;13.668;2023-02-04T01:26:22;2.85;;;1.60;;
24961;SDS011;12992;50.884;13.668;2023-02-04T01:28:48;1.52;;;1.42;;
24961;SDS011;12992;50.884;13.668;2023-02-04T01:31:14;2.88;;;1.70;;
24961;SDS011;12992;50.884;13.668;2023-02-04T01:33:39;2.33;;;1.75;;
24961;SDS011;12992;50.884;13.668;2023-02-04T01:36:05;2.60;;;1.60;;
24961;SDS011;12992;50.884;13.668;2023-02-04T01:38:30;2.33;;;1.70;;
24961;SDS011;12992;50.884;13.668;2023-02-04T01:40:56;1.92;;;1.38;;
24961;SDS011;12992;50.884;13.668;2023-02-04T01:43:22;1.90;;;1.70;;
24961;SDS011;12992;50.884;13.668;2023-02-04T01:45:48;2.10;;;1.80;;
24961;SDS011;12992;50.884;13.668;2023-02-04T01:48:15;1.70;;;1.50;;
24961;SDS011;12992;50.884;13.668;2023-02-04T01:50:56;1.75;;;1.65;;
24961;SDS011;12992;50.884;13.668;2023-02-04T01:53:27;2.85;;;1.80;;
24961;SDS011;12992;50.884;13.668;2023-02-04T01:55:52;2.38;;;1.77;;
24961;SDS011;12992;50.884;13.668;2023-02-04T01:58:18;3.35;;;2.00;;
24961;SDS011;12992;50.884;13.668;2023-02-04T02:00:44;3.03;;;1.90;;
24961;SDS011;12992;50.884;13.668;2023-02-04T02:03:09;3.75;;;2.25;;
24961;SDS011;12992;50.884;13.668;2023-02-04T02:05:38;3.70;;;1.92;;
24961;SDS011;12992;50.884;13.668;2023-02-04T02:08:07;2.85;;;1.92;;
24961;SDS011;12992;50.884;13.668;2023-02-04T02:10:32;2.10;;;1.75;;
24961;SDS011;12992;50.884;13.668;2023-02-04T02:13:02;4.10;;;2.13;;
24961;SDS011;12992;50.884;13.668;2023-02-04T02:15:28;4.28;;;2.17;;
24961;SDS011;12992;50.884;13.668;2023-02-04T02:17:54;3.00;;;1.95;;
24961;SDS011;12992;50.884;13.668;2023-02-04T02:20:20;3.28;;;2.00;;
24961;SDS011;12992;50.884;13.668;2023-02-04T02:22:58;4.93;;;2.30;;
24961;SDS011;12992;50.884;13.668;2023-02-04T02:25:29;2.95;;;2.05;;
24961;SDS011;12992;50.884;13.668;2023-02-04T02:27:55;2.85;;;2.20;;
24961;SDS011;12992;50.884;13.668;2023-02-04T02:30:22;3.25;;;1.98;;
24961;SDS011;12992;50.884;13.668;2023-02-04T02:32:48;2.75;;;1.80;;
24961;SDS011;12992;50.884;13.668;2023-02-04T02:35:14;1.90;;;1.70;;
24961;SDS011;12992;50.884;13.668;2023-02-04T02:37:41;3.95;;;2.10;;
24961;SDS011;12992;50.884;13.668;2023-02-04T02:40:07;1.83;;;1.73;;
24961;SDS011;12992;50.884;13.668;2023-02-04T02:42:33;2.25;;;2.03;;
24961;SDS011;12992;50.884;13.668;2023-02-04T02:44:59;3.42;;;2.00;;
24961;SDS011;12992;50.884;13.668;2023-02-04T02:47:30;2.63;;;1.90;;
24961;SDS011;12992;50.884;13.668;2023-02-04T02:49:57;4.32;;;2.20;;
24961;SDS011;12992;50.884;13.668;2023-02-04T02:52:22;3.40;;;1.83;;
24961;SDS011;12992;50.884;13.668;2023-02-04T02:54:48;2.35;;;1.63;;
24961;SDS011;12992;50.884;13.668;2023-02-04T02:57:17;2.42;;;1.90;;
24961;SDS011;12992;50.884;13.668;2023-02-04T02:59:45;1.95;;;1.75;;
24961;SDS011;12992;50.884;13.668;2023-02-04T03:02:11;3.10;;;1.90;;
24961;SDS011;12992;50.884;13.668;2023-02-04T03:04:41;4.70;;;1.80;;
24961;SDS011;12992;50.884;13.668;2023-02-04T03:07:13;3.65;;;2.22;;
24961;SDS011;12992;50.884;13.668;2023-02-04T03:09:40;1.95;;;1.80;;
24961;SDS011;12992;50.884;13.668;2023-02-04T03:12:05;2.28;;;2.00;;
24961;SDS011;12992;50.884;13.668;2023-02-04T03:14:32;3.72;;;2.25;;
24961;SDS011;12992;50.884;13.668;2023-02-04T03:16:59;2.60;;;2.00;;
24961;SDS011;12992;50.884;13.668;2023-02-04T03:19:26;3.38;;;2.17;;
24961;SDS011;12992;50.884;13.668;2023-02-04T03:21:53;2.40;;;2.08;;
24961;SDS011;12992;50.884;13.668;2023-02-04T03:24:21;3.00;;;2.13;;
24961;SDS011;12992;50.884;13.668;2023-02-04T03:26:47;2.05;;;1.88;;
24961;SDS011;12992;50.884;13.668;2023-02-04T03:29:12;2.80;;;2.15;;
24961;SDS011;12992;50.884;13.668;2023-02-04T03:31:37;3.25;;;1.70;;
24961;SDS011;12992;50.884;13.668;2023-02-04T03:34:03;3.25;;;1.77;;
24961;SDS011;12992;50.884;13.668;2023-02-04T03:36:28;2.63;;;2.08;;
24961;SDS011;12992;50.884;13.668;2023-02-04T03:38:54;3.80;;;1.67;;
24961;SDS011;12992;50.884;13.668;2023-02-04T03:41:19;2.22;;;1.88;;
24961;SDS011;12992;50.884;13.668;2023-02-04T03:43:44;2.53;;;2.10;;
24961;SDS011;12992;50.884;13.668;2023-02-04T03:46:10;2.15;;;1.95;;
24961;SDS011;12992;50.884;13.668;2023-02-04T03:48:35;3.38;;;2.10;;
24961;SDS011;12992;50.884;13.668;2023-02-04T03:51:00;3.22;;;2.03;;
24961;SDS011;12992;50.884;13.668;2023-02-04T03:53:26;3.00;;;2.20;;
24961;SDS011;12992;50.884;13.668;2023-02-04T03:55:51;3.47;;;2.17;;
24961;SDS011;12992;50.884;13.668;2023-02-04T03:58:16;2.72;;;1.90;;
24961;SDS011;12992;50.884;13.668;2023-02-04T04:00:42;2.75;;;2.15;;
24961;SDS011;12992;50.884;13.668;2023-02-04T04:03:07;2.90;;;2.08;;
24961;SDS011;12992;50.884;13.668;2023-02-04T04:05:33;2.55;;;1.90;;
24961;SDS011;12992;50.884;13.668;2023-02-04T04:07:58;1.50;;;1.40;;
24961;SDS011;12992;50.884;13.668;2023-02-04T04:10:24;3.20;;;1.50;;
24961;SDS011;12992;50.884;13.668;2023-02-04T04:12:49;4.43;;;1.70;;
24961;SDS011;12992;50.884;13.668;2023-02-04T04:15:15;1.88;;;1.50;;
24961;SDS011;12992;50.884;13.668;2023-02-04T04:17:40;2.08;;;1.67;;
24961;SDS011;12992;50.884;13.668;2023-02-04T04:20:06;2.47;;;1.80;;
24961;SDS011;12992;50.884;13.668;2023-02-04T04:22:31;2.13;;;1.80;;
24961;SDS011;12992;50.884;13.668;2023-02-04T04:24:57;2.22;;;1.90;;
24961;SDS011;12992;50.884;13.668;2023-02-04T04:27:23;1.67;;;1.50;;
24961;SDS011;12992;50.884;13.668;2023-02-04T04:29:49;2.42;;;1.90;;
24961;SDS011;12992;50.884;13.668;2023-02-04T04:32:15;2.65;;;1.95;;
24961;SDS011;12992;50.884;13.668;2023-02-04T04:34:40;1.67;;;1.58;;
24961;SDS011;12992;50.884;13.668;2023-02-04T04:37:06;3.20;;;1.98;;
24961;SDS011;12992;50.884;13.668;2023-02-04T04:39:31;2.17;;;1.88;;
24961;SDS011;12992;50.884;13.668;2023-02-04T04:41:56;3.47;;;1.98;;
24961;SDS011;12992;50.884;13.668;2023-02-04T04:44:22;1.77;;;1.60;;
24961;SDS011;12992;50.884;13.668;2023-02-04T04:46:47;1.88;;;1.67;;
24961;SDS011;12992;50.884;13.668;2023-02-04T04:49:12;2.65;;;2.10;;
24961;SDS011;12992;50.884;13.668;2023-02-04T04:51:37;2.58;;;1.50;;
24961;SDS011;12992;50.884;13.668;2023-02-04T04:54:03;5.05;;;1.60;;
24961;SDS011;12992;50.884;13.668;2023-02-04T04:56:28;2.15;;;1.50;;
24961;SDS011;12992;50.884;13.668;2023-02-04T04:58:53;1.98;;;1.65;;
24961;SDS011;12992;50.884;13.668;2023-02-04T05:01:19;1.88;;;1.73;;
24961;SDS011;12992;50.884;13.668;2023-02-04T05:03:46;2.08;;;1.60;;
24961;SDS011;12992;50.884;13.668;2023-02-04T05:06:12;1.65;;;1.55;;
24961;SDS011;12992;50.884;13.668;2023-02-04T05:08:37;2.30;;;1.73;;
24961;SDS011;12992;50.884;13.668;2023-02-04T05:11:02;1.80;;;1.65;;
24961;SDS011;12992;50.884;13.668;2023-02-04T05:13:28;1.90;;;1.70;;
24961;SDS011;12992;50.884;13.668;2023-02-04T05:15:53;2.42;;;1.83;;
24961;SDS011;12992;50.884;13.668;2023-02-04T05:18:18;2.35;;;1.70;;
24961;SDS011;12992;50.884;13.668;2023-02-04T05:20:44;2.20;;;2.00;;
24961;SDS011;12992;50.884;13.668;2023-02-04T05:23:09;2.55;;;2.20;;
24961;SDS011;12992;50.884;13.668;2023-02-04T05:25:35;2.25;;;1.80;;
24961;SDS011;12992;50.884;13.668;2023-02-04T05:28:00;3.42;;;1.80;;
24961;SDS011;12992;50.884;13.668;2023-02-04T05:30:25;1.92;;;1.70;;
24961;SDS011;12992;50.884;13.668;2023-02-04T05:32:51;3.78;;;2.08;;
24961;SDS011;12992;50.884;13.668;2023-02-04T05:35:16;6.05;;;2.28;;
24961;SDS011;12992;50.884;13.668;2023-02-04T05:37:41;5.28;;;2.75;;
24961;SDS011;12992;50.884;13.668;2023-02-04T05:40:07;4.03;;;2.40;;
24961;SDS011;12992;50.884;13.668;2023-02-04T05:42:32;4.50;;;2.33;;
24961;SDS011;12992;50.884;13.668;2023-02-04T05:44:58;2.97;;;2.28;;
24961;SDS011;12992;50.884;13.668;2023-02-04T05:47:23;2.78;;;2.20;;
24961;SDS011;12992;50.884;13.668;2023-02-04T05:49:48;2.80;;;1.85;;
24961;SDS011;12992;50.884;13.668;2023-02-04T05:52:14;5.40;;;2.22;;
24961;SDS011;12992;50.884;13.668;2023-02-04T05:54:39;2.08;;;1.77;;
24961;SDS011;12992;50.884;13.668;2023-02-04T05:57:04;2.33;;;1.92;;
24961;SDS011;12992;50.884;13.668;2023-02-04T05:59:30;3.08;;;1.80;;
24961;SDS011;12992;50.884;13.668;2023-02-04T06:01:55;2.90;;;2.00;;
24961;SDS011;12992;50.884;13.668;2023-02-04T06:04:20;2.20;;;1.80;;
24961;SDS011;12992;50.884;13.668;2023-02-04T06:06:46;3.30;;;1.70;;
24961;SDS011;12992;50.884;13.668;2023-02-04T06:09:11;2.08;;;1.67;;
24961;SDS011;12992;50.884;13.668;2023-02-04T06:11:37;3.03;;;1.42;;
24961;SDS011;12992;50.884;13.668;2023-02-04T06:14:02;3.60;;;1.90;;
24961;SDS011;12992;50.884;13.668;2023-02-04T06:16:28;3.33;;;1.75;;
24961;SDS011;12992;50.884;13.668;2023-02-04T06:18:53;4.15;;;1.95;;
24961;SDS011;12992;50.884;13.668;2023-02-04T06:21:19;1.73;;;1.38;;
24961;SDS011;12992;50.884;13.668;2023-02-04T06:23:44;5.88;;;2.00;;
24961;SDS011;12992;50.884;13.668;2023-02-04T06:26:09;2.35;;;1.88;;
24961;SDS011;12992;50.884;13.668;2023-02-04T06:28:35;2.90;;;1.65;;
24961;SDS011;12992;50.884;13.668;2023-02-04T06:31:00;3.10;;;1.60;;
24961;SDS011;12992;50.884;13.668;2023-02-04T06:33:26;5.70;;;2.97;;
24961;SDS011;12992;50.884;13.668;2023-02-04T06:35:51;6.22;;;3.70;;
24961;SDS011;12992;50.884;13.668;2023-02-04T06:38:16;7.75;;;4.40;;
24961;SDS011;12992;50.884;13.668;2023-02-04T06:40:42;3.33;;;2.55;;
24961;SDS011;12992;50.884;13.668;2023-02-04T06:43:07;5.18;;;2.33;;
24961;SDS011;12992;50.884;13.668;2023-02-04T06:45:32;4.45;;;2.40;;
24961;SDS011;12992;50.884;13.668;2023-02-04T06:47:58;4.38;;;2.10;;
24961;SDS011;12992;50.884;13.668;2023-02-04T06:50:23;3.22;;;2.10;;
24961;SDS011;12992;50.884;13.668;2023-02-04T06:52:48;2.80;;;1.90;;
24961;SDS011;12992;50.884;13.668;2023-02-04T06:55:14;4.25;;;1.67;;
24961;SDS011;12992;50.884;13.668;2023-02-04T06:57:40;2.40;;;1.90;;
24961;SDS011;12992;50.884;13.668;2023-02-04T07:00:07;4.45;;;1.67;;
24961;SDS011;12992;50.884;13.668;2023-02-04T07:02:34;1.65;;;1.42;;
24961;SDS011;12992;50.884;13.668;2023-02-04T07:05:00;5.15;;;1.80;;
24961;SDS011;12992;50.884;13.668;2023-02-04T07:07:26;4.60;;;1.63;;
24961;SDS011;12992;50.884;13.668;2023-02-04T07:09:51;2.85;;;2.10;;
24961;SDS011;12992;50.884;13.668;2023-02-04T07:12:17;2.72;;;1.90;;
24961;SDS011;12992;50.884;13.668;2023-02-04T07:14:43;3.03;;;1.50;;
24961;SDS011;12992;50.884;13.668;2023-02-04T07:17:08;3.15;;;1.88;;
24961;SDS011;12992;50.884;13.668;2023-02-04T07:19:34;4.07;;;2.17;;
24961;SDS011;12992;50.884;13.668;2023-02-04T07:22:00;3.55;;;2.15;;
24961;SDS011;12992;50.884;13.668;2023-02-04T07:24:26;3.85;;;2.10;;
24961;SDS011;12992;50.884;13.668;2023-02-04T07:26:51;3.20;;;1.75;;
24961;SDS011;12992;50.884;13.668;2023-02-04T07:29:17;4.10;;;2.55;;
24961;SDS011;12992;50.884;13.668;2023-02-04T07:31:43;4.50;;;2.25;;
24961;SDS011;12992;50.884;13.668;2023-02-04T07:34:10;4.55;;;2.00;;
24961;SDS011;12992;50.884;13.668;2023-02-04T07:36:37;2.45;;;1.85;;
24961;SDS011;12992;50.884;13.668;2023-02-04T07:39:02;2.65;;;1.80;;
24961;SDS011;12992;50.884;13.668;2023-02-04T07:41:28;2.97;;;2.15;;
24961;SDS011;12992;50.884;13.668;2023-02-04T07:43:53;3.30;;;2.00;;
24961;SDS011;12992;50.884;13.668;2023-02-04T07:46:18;3.92;;;1.95;;
24961;SDS011;12992;50.884;13.668;2023-02-04T07:48:44;4.25;;;2.30;;
24961;SDS011;12992;50.884;13.668;2023-02-04T07:51:09;3.17;;;1.67;;
24961;SDS011;12992;50.884;13.668;2023-02-04T07:53:34;4.72;;;2.00;;
24961;SDS011;12992;50.884;13.668;2023-02-04T07:56:00;3.45;;;2.08;;
24961;SDS011;12992;50.884;13.668;2023-02-04T07:58:25;2.47;;;1.92;;
24961;SDS011;12992;50.884;13.668;2023-02-04T08:00:50;4.45;;;1.98;;
24961;SDS011;12992;50.884;13.668;2023-02-04T08:03:16;3.03;;;1.90;;
24961;SDS011;12992;50.884;13.668;2023-02-04T08:05:41;5.80;;;1.90;;
24961;SDS011;12992;50.884;13.668;2023-02-04T08:08:06;6.45;;;2.08;;
24961;SDS011;12992;50.884;13.668;2023-02-04T08:10:31;3.75;;;1.80;;
24961;SDS011;12992;50.884;13.668;2023-02-04T08:12:57;2.88;;;1.80;;
24961;SDS011;12992;50.884;13.668;2023-02-04T08:15:22;3.50;;;2.30;;
24961;SDS011;12992;50.884;13.668;2023-02-04T08:17:47;3.70;;;2.20;;
24961;SDS011;12992;50.884;13.668;2023-02-04T08:20:13;4.22;;;1.85;;
24961;SDS011;12992;50.884;13.668;2023-02-04T08:22:38;3.72;;;2.00;;
24961;SDS011;12992;50.884;13.668;2023-02-04T08:25:04;2.78;;;1.88;;
24961;SDS011;12992;50.884;13.668;2023-02-04T08:27:29;4.88;;;1.77;;
24961;SDS011;12992;50.884;13.668;2023-02-04T08:29:55;4.72;;;1.77;;
24961;SDS011;12992;50.884;13.668;2023-02-04T08:32:20;2.90;;;1.90;;
24961;SDS011;12992;50.884;13.668;2023-02-04T08:34:46;2.70;;;2.30;;
24961;SDS011;12992;50.884;13.668;2023-02-04T08:37:12;3.30;;;1.90;;
24961;SDS011;12992;50.884;13.668;2023-02-04T08:39:38;3.40;;;1.75;;
24961;SDS011;12992;50.884;13.668;2023-02-04T08:42:04;5.13;;;1.75;;
24961;SDS011;12992;50.884;13.668;2023-02-04T08:44:29;3.08;;;1.90;;
24961;SDS011;12992;50.884;13.668;2023-02-04T08:46:55;4.88;;;1.80;;
24961;SDS011;12992;50.884;13.668;2023-02-04T08:49:20;4.88;;;1.88;;
24961;SDS011;12992;50.884;13.668;2023-02-04T08:51:45;5.55;;;1.63;;
24961;SDS011;12992;50.884;13.668;2023-02-04T08:54:11;3.13;;;1.75;;
24961;SDS011;12992;50.884;13.668;2023-02-04T08:56:36;5.53;;;1.77;;
24961;SDS011;12992;50.884;13.668;2023-02-04T08:59:01;5.57;;;2.10;;
24961;SDS011;12992;50.884;13.668;2023-02-04T09:01:27;3.35;;;1.77;;
24961;SDS011;12992;50.884;13.668;2023-02-04T09:03:52;7.72;;;2.60;;
24961;SDS011;12992;50.884;13.668;2023-02-04T09:06:17;4.35;;;2.28;;
24961;SDS011;12992;50.884;13.668;2023-02-04T09:08:43;3.38;;;2.10;;
24961;SDS011;12992;50.884;13.668;2023-02-04T09:11:08;2.60;;;2.20;;
24961;SDS011;12992;50.884;13.668;2023-02-04T09:13:36;4.07;;;2.40;;
24961;SDS011;12992;50.884;13.668;2023-02-04T09:16:02;3.38;;;2.30;;
24961;SDS011;12992;50.884;13.668;2023-02-04T09:18:27;4.15;;;2.25;;
24961;SDS011;12992;50.884;13.668;2023-02-04T09:20:54;6.35;;;2.38;;
24961;SDS011;12992;50.884;13.668;2023-02-04T09:23:19;10.07;;;6.35;;
24961;SDS011;12992;50.884;13.668;2023-02-04T09:25:47;8.90;;;6.07;;
24961;SDS011;12992;50.884;13.668;2023-02-04T09:28:12;4.88;;;3.17;;
24961;SDS011;12992;50.884;13.668;2023-02-04T09:30:38;3.30;;;2.20;;
24961;SDS011;12992;50.884;13.668;2023-02-04T09:33:04;4.47;;;2.00;;
24961;SDS011;12992;50.884;13.668;2023-02-04T09:35:30;3.00;;;1.60;;
24961;SDS011;12992;50.884;13.668;2023-02-04T09:37:55;2.42;;;1.98;;
24961;SDS011;12992;50.884;13.668;2023-02-04T09:40:21;2.90;;;1.75;;
24961;SDS011;12992;50.884;13.668;2023-02-04T09:42:47;5.05;;;2.10;;
24961;SDS011;12992;50.884;13.668;2023-02-04T09:45:16;3.33;;;1.77;;
24961;SDS011;12992;50.884;13.668;2023-02-04T09:47:44;2.47;;;1.40;;
24961;SDS011;12992;50.884;13.668;2023-02-04T09:50:15;3.25;;;1.77;;
24961;SDS011;12992;50.884;13.668;2023-02-04T09:52:43;3.50;;;1.80;;
24961;SDS011;12992;50.884;13.668;2023-02-04T09:55:13;3.55;;;1.83;;
24961;SDS011;12992;50.884;13.668;2023-02-04T09:57:40;2.95;;;2.30;;
24961;SDS011;12992;50.884;13.668;2023-02-04T10:00:25;2.72;;;1.85;;
24961;SDS011;12992;50.884;13.668;2023-02-04T10:02:52;3.20;;;2.08;;
24961;SDS011;12992;50.884;13.668;2023-02-04T10:05:19;1.98;;;1.77;;
24961;SDS011;12992;50.884;13.668;2023-02-04T10:07:50;3.97;;;1.90;;
24961;SDS011;12992;50.884;13.668;2023-02-04T10:10:17;2.70;;;1.92;;
24961;SDS011;12992;50.884;13.668;2023-02-04T10:12:44;6.03;;;1.98;;
24961;SDS011;12992;50.884;13.668;2023-02-04T10:15:12;2.95;;;1.70;;
24961;SDS011;12992;50.884;13.668;2023-02-04T10:17:39;3.60;;;1.70;;
24961;SDS011;12992;50.884;13.668;2023-02-04T10:20:05;2.70;;;2.00;;
24961;SDS011;12992;50.884;13.668;2023-02-04T10:22:36;2.45;;;1.52;;
24961;SDS011;12992;50.884;13.668;2023-02-04T10:25:07;4.47;;;1.90;;
24961;SDS011;12992;50.884;13.668;2023-02-04T10:27:45;3.90;;;1.80;;
24961;SDS011;12992;50.884;13.668;2023-02-04T10:30:57;2.65;;;1.70;;
24961;SDS011;12992;50.884;13.668;2023-02-04T10:33:12;3.13;;;1.88;;
24961;SDS011;12992;50.884;13.668;2023-02-04T10:35:46;2.25;;;1.85;;
24961;SDS011;12992;50.884;13.668;2023-02-04T10:38:13;2.30;;;1.70;;
24961;SDS011;12992;50.884;13.668;2023-02-04T10:40:39;2.90;;;1.90;;
24961;SDS011;12992;50.884;13.668;2023-02-04T10:43:08;2.22;;;1.70;;
24961;SDS011;12992;50.884;13.668;2023-02-04T10:45:46;3.22;;;1.80;;
24961;SDS011;12992;50.884;13.668;2023-02-04T10:48:19;3.78;;;1.50;;
24961;SDS011;12992;50.884;13.668;2023-02-04T10:50:46;3.00;;;1.85;;
24961;SDS011;12992;50.884;13.668;2023-02-04T10:53:17;2.67;;;1.98;;
24961;SDS011;12992;50.884;13.668;2023-02-04T10:56:03;2.70;;;1.83;;
24961;SDS011;12992;50.884;13.668;2023-02-04T10:58:30;2.20;;;1.70;;
24961;SDS011;12992;50.884;13.668;2023-02-04T11:00:56;3.22;;;1.90;;
24961;SDS011;12992;50.884;13.668;2023-02-04T11:03:22;3.33;;;1.63;;
24961;SDS011;12992;50.884;13.668;2023-02-04T11:05:50;3.33;;;1.30;;
24961;SDS011;12992;50.884;13.668;2023-02-04T11:10:49;4.38;;;1.60;;
24961;SDS011;12992;50.884;13.668;2023-02-04T11:13:23;3.20;;;1.50;;
24961;SDS011;12992;50.884;13.668;2023-02-04T11:18:48;2.47;;;1.63;;
24961;SDS011;12992;50.884;13.668;2023-02-04T11:24:05;4.85;;;1.60;;
24961;SDS011;12992;50.884;13.668;2023-02-04T11:26:47;2.50;;;1.60;;
24961;SDS011;12992;50.884;13.668;2023-02-04T11:29:28;2.38;;;1.38;;
24961;SDS011;12992;50.884;13.668;2023-02-04T11:32:26;2.67;;;1.42;;
24961;SDS011;12992;50.884;13.668;2023-02-04T11:34:51;2.97;;;1.30;;
24961;SDS011;12992;50.884;13.668;2023-02-04T11:39:51;2.60;;;1.42;;
24961;SDS011;12992;50.884;13.668;2023-02-04T11:42:18;2.55;;;1.30;;
24961;SDS011;12992;50.884;13.668;2023-02-04T11:45:19;2.55;;;1.52;;
24961;SDS011;12992;50.884;13.668;2023-02-04T11:47:48;3.00;;;1.30;;
24961;SDS011;12992;50.884;13.668;2023-02-04T11:50:20;3.10;;;1.70;;
24961;SDS011;12992;50.884;13.668;2023-02-04T11:52:49;2.15;;;1.40;;
24961;SDS011;12992;50.884;13.668;2023-02-04T11:55:15;1.95;;;1.25;;
24961;SDS011;12992;50.884;13.668;2023-02-04T11:57:41;3.13;;;1.30;;
24961;SDS011;12992;50.884;13.668;2023-02-04T12:00:14;2.35;;;1.65;;
24961;SDS011;12992;50.884;13.668;2023-02-04T12:02:46;2.45;;;1.38;;
24961;SDS011;12992;50.884;13.668;2023-02-04T12:05:14;1.65;;;1.55;;
24961;SDS011;12992;50.884;13.668;2023-02-04T12:07:42;3.80;;;1.30;;
24961;SDS011;12992;50.884;13.668;2023-02-04T12:10:09;1.73;;;1.48;;
24961;SDS011;12992;50.884;13.668;2023-02-04T12:12:50;4.72;;;1.60;;
24961;SDS011;12992;50.884;13.668;2023-02-04T12:15:23;1.50;;;1.25;;
24961;SDS011;12992;50.884;13.668;2023-02-04T12:18:00;3.15;;;1.20;;
24961;SDS011;12992;50.884;13.668;2023-02-04T12:20:27;2.63;;;1.15;;
24961;SDS011;12992;50.884;13.668;2023-02-04T12:22:52;5.43;;;1.10;;
24961;SDS011;12992;50.884;13.668;2023-02-04T12:25:18;3.20;;;1.05;;
24961;SDS011;12992;50.884;13.668;2023-02-04T12:27:44;2.08;;;1.15;;
24961;SDS011;12992;50.884;13.668;2023-02-04T12:30:09;1.48;;;1.10;;
24961;SDS011;12992;50.884;13.668;2023-02-04T12:32:36;1.58;;;1.17;;
24961;SDS011;12992;50.884;13.668;2023-02-04T12:35:01;3.20;;;1.50;;
24961;SDS011;12992;50.884;13.668;2023-02-04T12:37:26;2.33;;;1.20;;
24961;SDS011;12992;50.884;13.668;2023-02-04T12:39:52;2.17;;;1.17;;
24961;SDS011;12992;50.884;13.668;2023-02-04T12:42:17;3.20;;;1.30;;
24961;SDS011;12992;50.884;13.668;2023-02-04T12:44:42;3.15;;;1.10;;
24961;SDS011;12992;50.884;13.668;2023-02-04T12:47:08;4.00;;;1.30;;
24961;SDS011;12992;50.884;13.668;2023-02-04T12:49:33;2.20;;;1.08;;
24961;SDS011;12992;50.884;13.668;2023-02-04T12:51:58;1.05;;;0.90;;
24961;SDS011;12992;50.884;13.668;2023-02-04T12:54:26;0.73;;;0.70;;
24961;SDS011;12992;50.884;13.668;2023-02-04T12:56:51;4.40;;;0.93;;
24961;SDS011;12992;50.884;13.668;2023-02-04T12:59:17;2.30;;;0.90;;
24961;SDS011;12992;50.884;13.668;2023-02-04T13:01:43;1.42;;;1.10;;
24961;SDS011;12992;50.884;13.668;2023-02-04T13:04:08;1.98;;;1.10;;
24961;SDS011;12992;50.884;13.668;2023-02-04T13:06:33;1.98;;;1.10;;
24961;SDS011;12992;50.884;13.668;2023-02-04T13:08:59;2.50;;;1.10;;
24961;SDS011;12992;50.884;13.668;2023-02-04T13:11:24;3.08;;;1.48;;
24961;SDS011;12992;50.884;13.668;2023-02-04T13:13:49;1.45;;;1.20;;
24961;SDS011;12992;50.884;13.668;2023-02-04T13:16:14;3.05;;;1.27;;
24961;SDS011;12992;50.884;13.668;2023-02-04T13:18:41;2.17;;;1.27;;
24961;SDS011;12992;50.884;13.668;2023-02-04T13:21:07;2.53;;;1.02;;
24961;SDS011;12992;50.884;13.668;2023-02-04T13:23:32;1.20;;;1.10;;
24961;SDS011;12992;50.884;13.668;2023-02-04T13:25:57;2.58;;;1.23;;
24961;SDS011;12992;50.884;13.668;2023-02-04T13:28:23;3.15;;;1.10;;
24961;SDS011;12992;50.884;13.668;2023-02-04T13:30:48;3.85;;;0.82;;
24961;SDS011;12992;50.884;13.668;2023-02-04T13:33:13;1.58;;;0.60;;
24961;SDS011;12992;50.884;13.668;2023-02-04T13:35:39;0.70;;;0.70;;
24961;SDS011;12992;50.884;13.668;2023-02-04T13:38:04;1.90;;;0.75;;
24961;SDS011;12992;50.884;13.668;2023-02-04T13:40:30;1.48;;;0.60;;
24961;SDS011;12992;50.884;13.668;2023-02-04T13:42:55;2.30;;;0.70;;
24961;SDS011;12992;50.884;13.668;2023-02-04T13:45:20;1.17;;;0.57;;
24961;SDS011;12992;50.884;13.668;2023-02-04T13:47:46;0.70;;;0.70;;
24961;SDS011;12992;50.884;13.668;2023-02-04T13:50:12;1.42;;;0.73;;
24961;SDS011;12992;50.884;13.668;2023-02-04T13:52:38;1.20;;;0.80;;
24961;SDS011;12992;50.884;13.668;2023-02-04T13:55:03;1.85;;;0.80;;
24961;SDS011;12992;50.884;13.668;2023-02-04T13:57:29;2.17;;;0.88;;
24961;SDS011;12992;50.884;13.668;2023-02-04T13:59:55;1.23;;;0.75;;
24961;SDS011;12992;50.884;13.668;2023-02-04T14:02:20;1.25;;;0.80;;
24961;SDS011;12992;50.884;13.668;2023-02-04T14:04:47;3.45;;;1.05;;
24961;SDS011;12992;50.884;13.668;2023-02-04T14:07:13;2.05;;;0.80;;
24961;SDS011;12992;50.884;13.668;2023-02-04T14:09:39;1.13;;;0.70;;
24961;SDS011;12992;50.884;13.668;2023-02-04T14:12:04;1.50;;;0.80;;
24961;SDS011;12992;50.884;13.668;2023-02-04T14:14:29;1.13;;;0.60;;
24961;SDS011;12992;50.884;13.668;2023-02-04T14:16:55;1.88;;;0.70;;
24961;SDS011;12992;50.884;13.668;2023-02-04T14:19:20;0.98;;;0.75;;
24961;SDS011;12992;50.884;13.668;2023-02-04T14:21:45;2.88;;;0.98;;
24961;SDS011;12992;50.884;13.668;2023-02-04T14:24:12;1.00;;;0.80;;
24961;SDS011;12992;50.884;13.668;2023-02-04T14:26:38;1.17;;;0.77;;
24961;SDS011;12992;50.884;13.668;2023-02-04T14:29:03;1.15;;;0.60;;
24961;SDS011;12992;50.884;13.668;2023-02-04T14:31:28;1.08;;;0.68;;
24961;SDS011;12992;50.884;13.668;2023-02-04T14:33:54;1.35;;;0.68;;
24961;SDS011;12992;50.884;13.668;2023-02-04T14:36:20;0.88;;;0.60;;
24961;SDS011;12992;50.884;13.668;2023-02-04T14:38:46;1.85;;;0.70;;
24961;SDS011;12992;50.884;13.668;2023-02-04T14:41:11;1.13;;;0.70;;